FK-0023 weather

George Island Airport
George Island House, Falkland Islands

Public forecast

Using degrees Celsius for public forecast. Weather courtesy of forecast.io.

Closest aviation weather report (METAR) to George Island Airport

Closest report is Mount Pleasant Airport, 57.8 nm (107.1 km) ENE. Retrieved 2020/05/27 00:50 UTC (42 minutes ago):

EGYP 270050Z 36030KT 9000 RA SCT013 BKN050 05/04 Q1004

Closest aviation forecast (TAF) to George Island Airport

Closest forecast is Mount Pleasant Airport, 57.8 nm (107.1 km) ENE. Retrieved 2020-05-27 00:54 UTC (38 minutes ago):

TAF EGYP 262252Z 2700/2718 02025G35KT 9999 BKN025 520003 PROB40 2700/2702 BKN022 PROB30 TEMPO 2700/2714 VRB08KT 560003 PROB30 TEMPO 2700/2702 4000 RADZ SCT014 PROB40 2702/2718 BKN007 PROB40 TEMPO 2702/2714 3000 RADZ SCT004 BKN008 BECMG 2704/2706 35015G25KT BECMG 2712/2715 28008KT 50////